sensor_id;sensor_type;location;lat;lon;timestamp;P1;durP1;ratioP1;P2;durP2;ratioP2
13208;SDS011;6669;42.678;23.332;2024-01-06T00:01:30;31.23;;;21.27;;
13208;SDS011;6669;42.678;23.332;2024-01-06T00:03:59;33.67;;;20.93;;
13208;SDS011;6669;42.678;23.332;2024-01-06T00:06:27;29.77;;;21.17;;
13208;SDS011;6669;42.678;23.332;2024-01-06T00:08:57;31.13;;;22.00;;
13208;SDS011;6669;42.678;23.332;2024-01-06T00:11:25;27.83;;;20.00;;
13208;SDS011;6669;42.678;23.332;2024-01-06T00:13:53;25.63;;;20.07;;
13208;SDS011;6669;42.678;23.332;2024-01-06T00:16:21;27.67;;;20.67;;
13208;SDS011;6669;42.678;23.332;2024-01-06T00:18:52;30.83;;;21.50;;
13208;SDS011;6669;42.678;23.332;2024-01-06T00:21:21;29.70;;;20.47;;
13208;SDS011;6669;42.678;23.332;2024-01-06T00:23:49;29.37;;;20.63;;
13208;SDS011;6669;42.678;23.332;2024-01-06T00:26:18;29.53;;;21.17;;
13208;SDS011;6669;42.678;23.332;2024-01-06T00:28:46;27.93;;;20.23;;
13208;SDS011;6669;42.678;23.332;2024-01-06T00:31:15;27.10;;;20.77;;
13208;SDS011;6669;42.678;23.332;2024-01-06T00:33:44;31.77;;;20.93;;
13208;SDS011;6669;42.678;23.332;2024-01-06T00:36:13;29.07;;;20.47;;
13208;SDS011;6669;42.678;23.332;2024-01-06T00:38:41;31.23;;;21.43;;
13208;SDS011;6669;42.678;23.332;2024-01-06T00:41:09;24.90;;;20.83;;
13208;SDS011;6669;42.678;23.332;2024-01-06T00:43:39;30.03;;;21.03;;
13208;SDS011;6669;42.678;23.332;2024-01-06T00:46:07;29.10;;;21.00;;
13208;SDS011;6669;42.678;23.332;2024-01-06T00:48:35;31.30;;;20.17;;
13208;SDS011;6669;42.678;23.332;2024-01-06T00:51:04;27.10;;;20.70;;
13208;SDS011;6669;42.678;23.332;2024-01-06T00:53:32;30.50;;;21.13;;
13208;SDS011;6669;42.678;23.332;2024-01-06T00:56:00;32.20;;;21.07;;
13208;SDS011;6669;42.678;23.332;2024-01-06T00:58:29;25.80;;;19.40;;
13208;SDS011;6669;42.678;23.332;2024-01-06T01:00:58;26.80;;;20.80;;
13208;SDS011;6669;42.678;23.332;2024-01-06T01:03:27;28.23;;;20.30;;
13208;SDS011;6669;42.678;23.332;2024-01-06T01:05:55;25.00;;;20.13;;
13208;SDS011;6669;42.678;23.332;2024-01-06T01:08:24;28.07;;;20.70;;
13208;SDS011;6669;42.678;23.332;2024-01-06T01:10:52;28.80;;;21.37;;
13208;SDS011;6669;42.678;23.332;2024-01-06T01:13:20;29.07;;;21.30;;
13208;SDS011;6669;42.678;23.332;2024-01-06T01:15:49;31.87;;;21.40;;
13208;SDS011;6669;42.678;23.332;2024-01-06T01:18:18;29.80;;;20.83;;
13208;SDS011;6669;42.678;23.332;2024-01-06T01:20:47;30.77;;;21.90;;
13208;SDS011;6669;42.678;23.332;2024-01-06T01:23:15;30.67;;;21.97;;
13208;SDS011;6669;42.678;23.332;2024-01-06T01:25:43;31.33;;;22.50;;
13208;SDS011;6669;42.678;23.332;2024-01-06T01:28:12;30.87;;;21.33;;
13208;SDS011;6669;42.678;23.332;2024-01-06T01:30:41;33.00;;;22.43;;
13208;SDS011;6669;42.678;23.332;2024-01-06T01:33:09;30.03;;;21.70;;
13208;SDS011;6669;42.678;23.332;2024-01-06T01:35:39;29.00;;;20.27;;
13208;SDS011;6669;42.678;23.332;2024-01-06T01:38:07;27.03;;;20.90;;
13208;SDS011;6669;42.678;23.332;2024-01-06T01:40:35;27.93;;;21.20;;
13208;SDS011;6669;42.678;23.332;2024-01-06T01:43:03;30.73;;;21.03;;
13208;SDS011;6669;42.678;23.332;2024-01-06T01:45:33;30.33;;;21.20;;
13208;SDS011;6669;42.678;23.332;2024-01-06T01:48:01;29.73;;;21.13;;
13208;SDS011;6669;42.678;23.332;2024-01-06T01:50:30;29.03;;;21.83;;
13208;SDS011;6669;42.678;23.332;2024-01-06T01:52:59;30.07;;;21.23;;
13208;SDS011;6669;42.678;23.332;2024-01-06T01:55:28;26.23;;;20.53;;
13208;SDS011;6669;42.678;23.332;2024-01-06T01:57:57;24.60;;;20.37;;
13208;SDS011;6669;42.678;23.332;2024-01-06T02:00:25;29.83;;;19.87;;
13208;SDS011;6669;42.678;23.332;2024-01-06T02:02:53;25.17;;;20.47;;
13208;SDS011;6669;42.678;23.332;2024-01-06T02:05:22;25.37;;;19.63;;
13208;SDS011;6669;42.678;23.332;2024-01-06T02:07:50;22.97;;;19.47;;
13208;SDS011;6669;42.678;23.332;2024-01-06T02:10:20;30.37;;;21.00;;
13208;SDS011;6669;42.678;23.332;2024-01-06T02:12:48;25.37;;;20.40;;
13208;SDS011;6669;42.678;23.332;2024-01-06T02:15:18;25.67;;;20.07;;
13208;SDS011;6669;42.678;23.332;2024-01-06T02:17:47;29.07;;;20.47;;
13208;SDS011;6669;42.678;23.332;2024-01-06T02:20:15;27.07;;;19.97;;
13208;SDS011;6669;42.678;23.332;2024-01-06T02:22:48;27.03;;;19.90;;
13208;SDS011;6669;42.678;23.332;2024-01-06T02:25:16;22.23;;;18.33;;
13208;SDS011;6669;42.678;23.332;2024-01-06T02:27:46;23.30;;;17.90;;
13208;SDS011;6669;42.678;23.332;2024-01-06T02:30:14;23.37;;;17.67;;
13208;SDS011;6669;42.678;23.332;2024-01-06T02:32:43;22.03;;;16.80;;
13208;SDS011;6669;42.678;23.332;2024-01-06T02:35:11;20.47;;;15.50;;
13208;SDS011;6669;42.678;23.332;2024-01-06T02:37:39;22.17;;;15.10;;
13208;SDS011;6669;42.678;23.332;2024-01-06T02:40:11;19.03;;;14.67;;
13208;SDS011;6669;42.678;23.332;2024-01-06T02:42:39;21.80;;;15.30;;
13208;SDS011;6669;42.678;23.332;2024-01-06T02:45:08;20.03;;;15.40;;
13208;SDS011;6669;42.678;23.332;2024-01-06T02:47:37;20.97;;;15.37;;
13208;SDS011;6669;42.678;23.332;2024-01-06T02:50:05;18.10;;;15.43;;
13208;SDS011;6669;42.678;23.332;2024-01-06T02:52:34;20.97;;;15.83;;
13208;SDS011;6669;42.678;23.332;2024-01-06T02:55:03;20.60;;;16.30;;
13208;SDS011;6669;42.678;23.332;2024-01-06T02:57:33;19.40;;;15.33;;
13208;SDS011;6669;42.678;23.332;2024-01-06T03:00:02;22.27;;;15.43;;
13208;SDS011;6669;42.678;23.332;2024-01-06T03:02:31;23.07;;;15.33;;
13208;SDS011;6669;42.678;23.332;2024-01-06T03:04:59;20.70;;;15.70;;
13208;SDS011;6669;42.678;23.332;2024-01-06T03:07:27;20.13;;;15.70;;
13208;SDS011;6669;42.678;23.332;2024-01-06T03:09:55;20.87;;;14.13;;
13208;SDS011;6669;42.678;23.332;2024-01-06T03:12:24;16.67;;;13.00;;
13208;SDS011;6669;42.678;23.332;2024-01-06T03:14:53;18.33;;;13.57;;
13208;SDS011;6669;42.678;23.332;2024-01-06T03:17:22;17.00;;;12.77;;
13208;SDS011;6669;42.678;23.332;2024-01-06T03:19:50;16.53;;;12.03;;
13208;SDS011;6669;42.678;23.332;2024-01-06T03:22:19;14.97;;;9.93;;
13208;SDS011;6669;42.678;23.332;2024-01-06T03:24:48;13.43;;;10.27;;
13208;SDS011;6669;42.678;23.332;2024-01-06T03:27:16;11.13;;;9.50;;
13208;SDS011;6669;42.678;23.332;2024-01-06T03:29:44;14.13;;;9.83;;
13208;SDS011;6669;42.678;23.332;2024-01-06T03:32:14;11.23;;;7.70;;
13208;SDS011;6669;42.678;23.332;2024-01-06T03:34:42;11.13;;;7.77;;
13208;SDS011;6669;42.678;23.332;2024-01-06T03:37:11;10.80;;;7.07;;
13208;SDS011;6669;42.678;23.332;2024-01-06T03:39:39;10.43;;;6.83;;
13208;SDS011;6669;42.678;23.332;2024-01-06T03:42:07;9.93;;;6.87;;
13208;SDS011;6669;42.678;23.332;2024-01-06T03:44:35;11.10;;;6.63;;
13208;SDS011;6669;42.678;23.332;2024-01-06T03:47:04;9.80;;;7.17;;
13208;SDS011;6669;42.678;23.332;2024-01-06T03:49:33;9.57;;;7.20;;
13208;SDS011;6669;42.678;23.332;2024-01-06T03:52:02;10.80;;;6.67;;
13208;SDS011;6669;42.678;23.332;2024-01-06T03:54:30;9.87;;;7.23;;
13208;SDS011;6669;42.678;23.332;2024-01-06T03:56:58;10.27;;;7.57;;
13208;SDS011;6669;42.678;23.332;2024-01-06T03:59:26;12.13;;;7.73;;
13208;SDS011;6669;42.678;23.332;2024-01-06T04:01:54;11.73;;;8.03;;
13208;SDS011;6669;42.678;23.332;2024-01-06T04:04:23;7.90;;;7.10;;
13208;SDS011;6669;42.678;23.332;2024-01-06T04:06:52;10.73;;;8.00;;
13208;SDS011;6669;42.678;23.332;2024-01-06T04:09:20;9.97;;;7.10;;
13208;SDS011;6669;42.678;23.332;2024-01-06T04:11:49;12.20;;;7.20;;
13208;SDS011;6669;42.678;23.332;2024-01-06T04:14:17;11.60;;;8.13;;
13208;SDS011;6669;42.678;23.332;2024-01-06T04:16:45;10.07;;;7.43;;
13208;SDS011;6669;42.678;23.332;2024-01-06T04:19:14;19.07;;;13.13;;
13208;SDS011;6669;42.678;23.332;2024-01-06T04:21:42;15.27;;;12.13;;
13208;SDS011;6669;42.678;23.332;2024-01-06T04:24:10;12.87;;;9.47;;
13208;SDS011;6669;42.678;23.332;2024-01-06T04:26:39;8.80;;;7.43;;
13208;SDS011;6669;42.678;23.332;2024-01-06T04:29:07;10.57;;;7.40;;
13208;SDS011;6669;42.678;23.332;2024-01-06T04:31:35;7.27;;;5.80;;
13208;SDS011;6669;42.678;23.332;2024-01-06T04:34:03;9.90;;;6.43;;
13208;SDS011;6669;42.678;23.332;2024-01-06T04:36:32;7.30;;;5.87;;
13208;SDS011;6669;42.678;23.332;2024-01-06T04:39:00;8.70;;;6.60;;
13208;SDS011;6669;42.678;23.332;2024-01-06T04:41:30;8.27;;;6.10;;
13208;SDS011;6669;42.678;23.332;2024-01-06T04:43:58;7.20;;;6.30;;
13208;SDS011;6669;42.678;23.332;2024-01-06T04:46:26;7.57;;;6.13;;
13208;SDS011;6669;42.678;23.332;2024-01-06T04:48:54;8.13;;;6.80;;
13208;SDS011;6669;42.678;23.332;2024-01-06T04:51:22;8.03;;;5.90;;
13208;SDS011;6669;42.678;23.332;2024-01-06T04:53:51;7.90;;;6.70;;
13208;SDS011;6669;42.678;23.332;2024-01-06T04:56:19;7.23;;;6.17;;
13208;SDS011;6669;42.678;23.332;2024-01-06T04:58:48;9.50;;;6.70;;
13208;SDS011;6669;42.678;23.332;2024-01-06T05:01:17;8.77;;;6.70;;
13208;SDS011;6669;42.678;23.332;2024-01-06T05:03:45;9.67;;;7.70;;
13208;SDS011;6669;42.678;23.332;2024-01-06T05:06:14;8.33;;;6.67;;
13208;SDS011;6669;42.678;23.332;2024-01-06T05:08:42;9.70;;;7.43;;
13208;SDS011;6669;42.678;23.332;2024-01-06T05:11:11;11.10;;;7.60;;
13208;SDS011;6669;42.678;23.332;2024-01-06T05:13:40;9.43;;;7.37;;
13208;SDS011;6669;42.678;23.332;2024-01-06T05:16:09;8.90;;;6.53;;
13208;SDS011;6669;42.678;23.332;2024-01-06T05:18:37;6.47;;;5.67;;
13208;SDS011;6669;42.678;23.332;2024-01-06T05:21:06;6.50;;;5.20;;
13208;SDS011;6669;42.678;23.332;2024-01-06T05:23:35;8.40;;;6.73;;
13208;SDS011;6669;42.678;23.332;2024-01-06T05:26:03;6.83;;;5.90;;
13208;SDS011;6669;42.678;23.332;2024-01-06T05:28:31;7.83;;;5.73;;
13208;SDS011;6669;42.678;23.332;2024-01-06T05:30:59;6.63;;;5.80;;
13208;SDS011;6669;42.678;23.332;2024-01-06T05:33:29;8.73;;;6.33;;
13208;SDS011;6669;42.678;23.332;2024-01-06T05:35:58;6.73;;;5.97;;
13208;SDS011;6669;42.678;23.332;2024-01-06T05:38:26;8.30;;;5.70;;
13208;SDS011;6669;42.678;23.332;2024-01-06T05:40:54;6.30;;;5.30;;
13208;SDS011;6669;42.678;23.332;2024-01-06T05:43:22;8.10;;;5.37;;
13208;SDS011;6669;42.678;23.332;2024-01-06T05:45:50;7.23;;;5.40;;
13208;SDS011;6669;42.678;23.332;2024-01-06T05:48:19;7.40;;;5.33;;
13208;SDS011;6669;42.678;23.332;2024-01-06T05:50:49;6.70;;;5.20;;
13208;SDS011;6669;42.678;23.332;2024-01-06T05:53:17;6.87;;;4.90;;
13208;SDS011;6669;42.678;23.332;2024-01-06T05:55:45;4.97;;;4.20;;
13208;SDS011;6669;42.678;23.332;2024-01-06T05:58:13;5.00;;;4.17;;
13208;SDS011;6669;42.678;23.332;2024-01-06T06:00:42;5.57;;;4.30;;
13208;SDS011;6669;42.678;23.332;2024-01-06T06:03:12;7.50;;;4.50;;
13208;SDS011;6669;42.678;23.332;2024-01-06T06:05:40;8.40;;;5.13;;
13208;SDS011;6669;42.678;23.332;2024-01-06T06:08:10;8.30;;;4.83;;
13208;SDS011;6669;42.678;23.332;2024-01-06T06:10:38;7.47;;;4.80;;
13208;SDS011;6669;42.678;23.332;2024-01-06T06:13:26;7.07;;;5.10;;
13208;SDS011;6669;42.678;23.332;2024-01-06T06:15:55;6.63;;;4.53;;
13208;SDS011;6669;42.678;23.332;2024-01-06T06:18:24;6.13;;;4.50;;
13208;SDS011;6669;42.678;23.332;2024-01-06T06:20:52;7.27;;;4.23;;
13208;SDS011;6669;42.678;23.332;2024-01-06T06:23:22;5.80;;;4.20;;
13208;SDS011;6669;42.678;23.332;2024-01-06T06:25:50;6.37;;;4.10;;
13208;SDS011;6669;42.678;23.332;2024-01-06T06:28:19;6.00;;;4.27;;
13208;SDS011;6669;42.678;23.332;2024-01-06T06:30:47;6.77;;;4.70;;
13208;SDS011;6669;42.678;23.332;2024-01-06T06:33:15;6.57;;;4.33;;
13208;SDS011;6669;42.678;23.332;2024-01-06T06:35:44;6.97;;;4.07;;
13208;SDS011;6669;42.678;23.332;2024-01-06T06:38:12;6.17;;;4.33;;
13208;SDS011;6669;42.678;23.332;2024-01-06T06:40:42;7.27;;;4.87;;
13208;SDS011;6669;42.678;23.332;2024-01-06T06:43:10;5.70;;;4.03;;
13208;SDS011;6669;42.678;23.332;2024-01-06T06:45:40;8.53;;;4.80;;
13208;SDS011;6669;42.678;23.332;2024-01-06T06:48:08;6.53;;;4.20;;
13208;SDS011;6669;42.678;23.332;2024-01-06T06:50:37;7.67;;;4.87;;
13208;SDS011;6669;42.678;23.332;2024-01-06T06:53:07;6.07;;;4.37;;
13208;SDS011;6669;42.678;23.332;2024-01-06T06:55:35;5.13;;;4.33;;
13208;SDS011;6669;42.678;23.332;2024-01-06T06:58:05;6.70;;;4.37;;
13208;SDS011;6669;42.678;23.332;2024-01-06T07:00:34;6.80;;;4.70;;
13208;SDS011;6669;42.678;23.332;2024-01-06T07:03:02;6.83;;;4.40;;
13208;SDS011;6669;42.678;23.332;2024-01-06T07:05:30;9.20;;;4.83;;
13208;SDS011;6669;42.678;23.332;2024-01-06T07:07:59;7.43;;;5.43;;
13208;SDS011;6669;42.678;23.332;2024-01-06T07:10:28;6.07;;;4.50;;
13208;SDS011;6669;42.678;23.332;2024-01-06T07:12:56;9.17;;;5.80;;
13208;SDS011;6669;42.678;23.332;2024-01-06T07:15:25;6.33;;;4.80;;
13208;SDS011;6669;42.678;23.332;2024-01-06T07:17:54;6.80;;;4.67;;
13208;SDS011;6669;42.678;23.332;2024-01-06T07:20:22;7.67;;;4.67;;
13208;SDS011;6669;42.678;23.332;2024-01-06T07:22:50;6.17;;;5.00;;
13208;SDS011;6669;42.678;23.332;2024-01-06T07:25:19;7.67;;;4.30;;
13208;SDS011;6669;42.678;23.332;2024-01-06T07:27:47;4.93;;;4.43;;
13208;SDS011;6669;42.678;23.332;2024-01-06T07:30:20;13.07;;;5.27;;
13208;SDS011;6669;42.678;23.332;2024-01-06T07:32:50;5.97;;;4.90;;
13208;SDS011;6669;42.678;23.332;2024-01-06T07:35:18;6.47;;;4.27;;
13208;SDS011;6669;42.678;23.332;2024-01-06T07:37:47;5.03;;;4.53;;
13208;SDS011;6669;42.678;23.332;2024-01-06T07:40:15;7.47;;;5.27;;
13208;SDS011;6669;42.678;23.332;2024-01-06T07:42:43;9.03;;;5.00;;
13208;SDS011;6669;42.678;23.332;2024-01-06T07:45:12;6.33;;;5.50;;
13208;SDS011;6669;42.678;23.332;2024-01-06T07:47:40;6.93;;;5.57;;
13208;SDS011;6669;42.678;23.332;2024-01-06T07:50:10;7.07;;;5.63;;
13208;SDS011;6669;42.678;23.332;2024-01-06T07:52:38;6.63;;;4.93;;
13208;SDS011;6669;42.678;23.332;2024-01-06T07:55:07;9.23;;;6.77;;
13208;SDS011;6669;42.678;23.332;2024-01-06T07:57:35;8.07;;;5.43;;
13208;SDS011;6669;42.678;23.332;2024-01-06T08:00:04;7.80;;;5.60;;
13208;SDS011;6669;42.678;23.332;2024-01-06T08:02:33;40.40;;;30.33;;
13208;SDS011;6669;42.678;23.332;2024-01-06T08:05:01;10.73;;;6.97;;
13208;SDS011;6669;42.678;23.332;2024-01-06T08:07:31;9.63;;;5.57;;
13208;SDS011;6669;42.678;23.332;2024-01-06T08:09:59;6.13;;;5.20;;
13208;SDS011;6669;42.678;23.332;2024-01-06T08:12:31;7.87;;;5.50;;
13208;SDS011;6669;42.678;23.332;2024-01-06T08:15:00;7.43;;;5.57;;
13208;SDS011;6669;42.678;23.332;2024-01-06T08:17:29;6.93;;;5.30;;
13208;SDS011;6669;42.678;23.332;2024-01-06T08:19:57;7.90;;;5.30;;
13208;SDS011;6669;42.678;23.332;2024-01-06T08:22:26;8.57;;;5.63;;
13208;SDS011;6669;42.678;23.332;2024-01-06T08:24:56;7.53;;;5.33;;
13208;SDS011;6669;42.678;23.332;2024-01-06T08:27:24;10.97;;;5.87;;
13208;SDS011;6669;42.678;23.332;2024-01-06T08:29:52;6.17;;;5.07;;
13208;SDS011;6669;42.678;23.332;2024-01-06T08:32:21;8.03;;;5.53;;
13208;SDS011;6669;42.678;23.332;2024-01-06T08:34:49;8.20;;;4.80;;
13208;SDS011;6669;42.678;23.332;2024-01-06T08:37:17;6.40;;;4.50;;
13208;SDS011;6669;42.678;23.332;2024-01-06T08:39:46;6.90;;;4.80;;
13208;SDS011;6669;42.678;23.332;2024-01-06T08:42:16;10.67;;;5.13;;
13208;SDS011;6669;42.678;23.332;2024-01-06T08:44:45;12.10;;;9.33;;
13208;SDS011;6669;42.678;23.332;2024-01-06T08:47:13;8.37;;;5.33;;
13208;SDS011;6669;42.678;23.332;2024-01-06T08:49:41;9.10;;;5.73;;
13208;SDS011;6669;42.678;23.332;2024-01-06T08:52:10;12.93;;;9.70;;
13208;SDS011;6669;42.678;23.332;2024-01-06T08:54:38;17.37;;;13.37;;
13208;SDS011;6669;42.678;23.332;2024-01-06T08:57:06;18.73;;;15.77;;
13208;SDS011;6669;42.678;23.332;2024-01-06T08:59:36;22.27;;;14.30;;
13208;SDS011;6669;42.678;23.332;2024-01-06T09:02:06;24.87;;;15.63;;
13208;SDS011;6669;42.678;23.332;2024-01-06T09:04:35;23.43;;;16.60;;
13208;SDS011;6669;42.678;23.332;2024-01-06T09:07:03;21.73;;;16.83;;
13208;SDS011;6669;42.678;23.332;2024-01-06T09:09:31;21.13;;;16.90;;
13208;SDS011;6669;42.678;23.332;2024-01-06T09:12:00;18.97;;;16.70;;
13208;SDS011;6669;42.678;23.332;2024-01-06T09:14:28;19.97;;;16.67;;
13208;SDS011;6669;42.678;23.332;2024-01-06T09:16:58;23.70;;;16.30;;
13208;SDS011;6669;42.678;23.332;2024-01-06T09:19:26;20.33;;;16.03;;
13208;SDS011;6669;42.678;23.332;2024-01-06T09:21:55;19.87;;;15.23;;
13208;SDS011;6669;42.678;23.332;2024-01-06T09:24:23;20.87;;;14.80;;
13208;SDS011;6669;42.678;23.332;2024-01-06T09:26:51;19.20;;;14.67;;
13208;SDS011;6669;42.678;23.332;2024-01-06T09:29:20;20.90;;;14.63;;
13208;SDS011;6669;42.678;23.332;2024-01-06T09:31:48;18.33;;;14.53;;
13208;SDS011;6669;42.678;23.332;2024-01-06T09:34:18;14.10;;;10.93;;
13208;SDS011;6669;42.678;23.332;2024-01-06T09:36:46;15.37;;;12.80;;
13208;SDS011;6669;42.678;23.332;2024-01-06T09:39:14;17.20;;;13.67;;
13208;SDS011;6669;42.678;23.332;2024-01-06T09:41:43;20.27;;;16.40;;
13208;SDS011;6669;42.678;23.332;2024-01-06T09:44:12;24.37;;;17.60;;
13208;SDS011;6669;42.678;23.332;2024-01-06T09:46:42;22.73;;;18.80;;
13208;SDS011;6669;42.678;23.332;2024-01-06T09:49:11;23.43;;;18.60;;
13208;SDS011;6669;42.678;23.332;2024-01-06T09:51:43;23.50;;;17.37;;
13208;SDS011;6669;42.678;23.332;2024-01-06T09:54:18;21.77;;;17.63;;
13208;SDS011;6669;42.678;23.332;2024-01-06T09:56:50;29.03;;;18.43;;
13208;SDS011;6669;42.678;23.332;2024-01-06T09:59:19;20.77;;;17.70;;
13208;SDS011;6669;42.678;23.332;2024-01-06T10:01:47;19.67;;;14.10;;
13208;SDS011;6669;42.678;23.332;2024-01-06T10:04:19;18.13;;;14.33;;
13208;SDS011;6669;42.678;23.332;2024-01-06T10:06:51;18.63;;;14.53;;
13208;SDS011;6669;42.678;23.332;2024-01-06T10:09:25;20.50;;;15.13;;
13208;SDS011;6669;42.678;23.332;2024-01-06T10:11:55;20.47;;;13.93;;
13208;SDS011;6669;42.678;23.332;2024-01-06T10:14:24;23.67;;;14.83;;
13208;SDS011;6669;42.678;23.332;2024-01-06T10:16:53;19.30;;;13.93;;
13208;SDS011;6669;42.678;23.332;2024-01-06T10:19:22;20.03;;;13.87;;
13208;SDS011;6669;42.678;23.332;2024-01-06T10:21:53;22.63;;;15.10;;
13208;SDS011;6669;42.678;23.332;2024-01-06T10:24:23;20.07;;;13.53;;
13208;SDS011;6669;42.678;23.332;2024-01-06T10:26:51;17.20;;;12.30;;
13208;SDS011;6669;42.678;23.332;2024-01-06T10:29:19;12.83;;;10.90;;
13208;SDS011;6669;42.678;23.332;2024-01-06T10:31:48;14.63;;;10.27;;
13208;SDS011;6669;42.678;23.332;2024-01-06T10:34:20;17.23;;;10.87;;
13208;SDS011;6669;42.678;23.332;2024-01-06T10:36:49;14.30;;;11.10;;
13208;SDS011;6669;42.678;23.332;2024-01-06T10:39:20;15.57;;;11.80;;
13208;SDS011;6669;42.678;23.332;2024-01-06T10:41:49;15.43;;;11.60;;
13208;SDS011;6669;42.678;23.332;2024-01-06T10:44:19;15.43;;;11.03;;
13208;SDS011;6669;42.678;23.332;2024-01-06T10:46:48;17.87;;;11.47;;
13208;SDS011;6669;42.678;23.332;2024-01-06T10:49:19;15.60;;;11.30;;
13208;SDS011;6669;42.678;23.332;2024-01-06T10:51:50;14.07;;;10.27;;
13208;SDS011;6669;42.678;23.332;2024-01-06T10:54:22;30.73;;;21.27;;
13208;SDS011;6669;42.678;23.332;2024-01-06T10:56:52;13.20;;;10.90;;
13208;SDS011;6669;42.678;23.332;2024-01-06T10:59:22;12.27;;;9.20;;
13208;SDS011;6669;42.678;23.332;2024-01-06T11:01:54;12.87;;;9.53;;
13208;SDS011;6669;42.678;23.332;2024-01-06T11:04:22;12.30;;;9.97;;
13208;SDS011;6669;42.678;23.332;2024-01-06T11:06:51;12.30;;;9.65;;
13208;SDS011;6669;42.678;23.332;2024-01-06T11:09:22;14.90;;;9.60;;
13208;SDS011;6669;42.678;23.332;2024-01-06T11:11:57;11.27;;;9.77;;
13208;SDS011;6669;42.678;23.332;2024-01-06T11:14:26;11.73;;;9.00;;
13208;SDS011;6669;42.678;23.332;2024-01-06T11:16:55;13.53;;;9.20;;
13208;SDS011;6669;42.678;23.332;2024-01-06T11:19:42;14.07;;;9.50;;
13208;SDS011;6669;42.678;23.332;2024-01-06T11:22:20;14.57;;;7.45;;
13208;SDS011;6669;42.678;23.332;2024-01-06T11:24:52;9.43;;;7.63;;
13208;SDS011;6669;42.678;23.332;2024-01-06T11:27:23;9.10;;;7.63;;
13208;SDS011;6669;42.678;23.332;2024-01-06T11:29:56;10.32;;;7.10;;
13208;SDS011;6669;42.678;23.332;2024-01-06T11:32:26;14.88;;;7.53;;
13208;SDS011;6669;42.678;23.332;2024-01-06T11:35:04;19.88;;;13.00;;
13208;SDS011;6669;42.678;23.332;2024-01-06T11:37:35;35.40;;;18.23;;
13208;SDS011;6669;42.678;23.332;2024-01-06T11:40:09;12.60;;;7.68;;
13208;SDS011;6669;42.678;23.332;2024-01-06T11:42:40;11.93;;;7.30;;
13208;SDS011;6669;42.678;23.332;2024-01-06T11:45:09;10.35;;;5.70;;
13208;SDS011;6669;42.678;23.332;2024-01-06T11:47:38;9.65;;;6.78;;
13208;SDS011;6669;42.678;23.332;2024-01-06T11:50:07;6.90;;;5.20;;
13208;SDS011;6669;42.678;23.332;2024-01-06T11:52:37;9.00;;;6.03;;
13208;SDS011;6669;42.678;23.332;2024-01-06T11:55:05;8.52;;;5.40;;
13208;SDS011;6669;42.678;23.332;2024-01-06T11:57:37;8.73;;;5.10;;
13208;SDS011;6669;42.678;23.332;2024-01-06T12:00:06;6.97;;;4.32;;
13208;SDS011;6669;42.678;23.332;2024-01-06T12:02:34;6.88;;;5.25;;
13208;SDS011;6669;42.678;23.332;2024-01-06T12:05:03;9.48;;;5.50;;
13208;SDS011;6669;42.678;23.332;2024-01-06T12:07:31;5.35;;;4.50;;
13208;SDS011;6669;42.678;23.332;2024-01-06T12:10:02;7.88;;;4.75;;
13208;SDS011;6669;42.678;23.332;2024-01-06T12:12:31;5.65;;;4.82;;
13208;SDS011;6669;42.678;23.332;2024-01-06T12:15:01;6.53;;;4.90;;
13208;SDS011;6669;42.678;23.332;2024-01-06T12:17:30;6.55;;;4.18;;
13208;SDS011;6669;42.678;23.332;2024-01-06T12:19:59;7.50;;;4.38;;
13208;SDS011;6669;42.678;23.332;2024-01-06T12:22:27;8.35;;;5.35;;
13208;SDS011;6669;42.678;23.332;2024-01-06T12:24:55;18.92;;;11.73;;
13208;SDS011;6669;42.678;23.332;2024-01-06T12:27:27;10.10;;;5.68;;
13208;SDS011;6669;42.678;23.332;2024-01-06T12:29:55;8.55;;;6.00;;
13208;SDS011;6669;42.678;23.332;2024-01-06T12:32:25;6.78;;;5.57;;
13208;SDS011;6669;42.678;23.332;2024-01-06T12:34:53;7.13;;;5.25;;
13208;SDS011;6669;42.678;23.332;2024-01-06T12:37:22;8.10;;;5.40;;
13208;SDS011;6669;42.678;23.332;2024-01-06T12:39:50;9.43;;;5.95;;
13208;SDS011;6669;42.678;23.332;2024-01-06T12:42:19;8.13;;;5.10;;
13208;SDS011;6669;42.678;23.332;2024-01-06T12:44:50;9.55;;;5.65;;
13208;SDS011;6669;42.678;23.332;2024-01-06T12:47:18;5.07;;;4.55;;
13208;SDS011;6669;42.678;23.332;2024-01-06T12:49:48;7.78;;;5.00;;
13208;SDS011;6669;42.678;23.332;2024-01-06T12:52:16;7.20;;;5.65;;
13208;SDS011;6669;42.678;23.332;2024-01-06T12:54:45;8.02;;;4.55;;
13208;SDS011;6669;42.678;23.332;2024-01-06T12:57:13;12.80;;;9.00;;
13208;SDS011;6669;42.678;23.332;2024-01-06T12:59:41;5.70;;;5.10;;
13208;SDS011;6669;42.678;23.332;2024-01-06T13:02:10;7.05;;;5.03;;
13208;SDS011;6669;42.678;23.332;2024-01-06T13:04:38;12.50;;;6.72;;
13208;SDS011;6669;42.678;23.332;2024-01-06T13:07:08;15.85;;;11.02;;
13208;SDS011;6669;42.678;23.332;2024-01-06T13:09:37;10.75;;;7.93;;
13208;SDS011;6669;42.678;23.332;2024-01-06T13:12:05;8.30;;;6.60;;
13208;SDS011;6669;42.678;23.332;2024-01-06T13:14:34;6.93;;;5.20;;
13208;SDS011;6669;42.678;23.332;2024-01-06T13:17:04;10.70;;;4.88;;
13208;SDS011;6669;42.678;23.332;2024-01-06T13:19:32;5.70;;;4.32;;
13208;SDS011;6669;42.678;23.332;2024-01-06T13:22:01;5.13;;;3.83;;
13208;SDS011;6669;42.678;23.332;2024-01-06T13:24:30;6.68;;;3.80;;
13208;SDS011;6669;42.678;23.332;2024-01-06T13:26:58;6.60;;;3.70;;
13208;SDS011;6669;42.678;23.332;2024-01-06T13:29:29;5.78;;;3.55;;
13208;SDS011;6669;42.678;23.332;2024-01-06T13:31:57;7.30;;;3.95;;
13208;SDS011;6669;42.678;23.332;2024-01-06T13:34:27;5.78;;;3.80;;
13208;SDS011;6669;42.678;23.332;2024-01-06T13:36:57;4.70;;;3.97;;
13208;SDS011;6669;42.678;23.332;2024-01-06T13:39:25;6.93;;;3.97;;
13208;SDS011;6669;42.678;23.332;2024-01-06T13:41:55;7.00;;;3.97;;
13208;SDS011;6669;42.678;23.332;2024-01-06T13:44:24;6.90;;;4.00;;
13208;SDS011;6669;42.678;23.332;2024-01-06T13:46:52;4.97;;;3.80;;
13208;SDS011;6669;42.678;23.332;2024-01-06T13:49:21;6.28;;;4.10;;
13208;SDS011;6669;42.678;23.332;2024-01-06T13:51:50;9.85;;;4.78;;
13208;SDS011;6669;42.678;23.332;2024-01-06T13:54:18;6.25;;;3.90;;
13208;SDS011;6669;42.678;23.332;2024-01-06T13:56:47;6.57;;;4.93;;
13208;SDS011;6669;42.678;23.332;2024-01-06T13:59:16;19.13;;;17.13;;
13208;SDS011;6669;42.678;23.332;2024-01-06T14:01:45;5.07;;;3.85;;
13208;SDS011;6669;42.678;23.332;2024-01-06T14:04:14;5.95;;;4.10;;
13208;SDS011;6669;42.678;23.332;2024-01-06T14:06:43;5.85;;;4.43;;
13208;SDS011;6669;42.678;23.332;2024-01-06T14:09:14;8.15;;;4.40;;
13208;SDS011;6669;42.678;23.332;2024-01-06T14:11:42;5.82;;;4.07;;
13208;SDS011;6669;42.678;23.332;2024-01-06T14:14:11;7.82;;;4.43;;
13208;SDS011;6669;42.678;23.332;2024-01-06T14:16:41;7.40;;;4.93;;
13208;SDS011;6669;42.678;23.332;2024-01-06T14:19:13;8.80;;;4.80;;
13208;SDS011;6669;42.678;23.332;2024-01-06T14:21:41;7.85;;;4.85;;
13208;SDS011;6669;42.678;23.332;2024-01-06T14:24:09;10.18;;;4.50;;
13208;SDS011;6669;42.678;23.332;2024-01-06T14:26:38;7.07;;;4.50;;
13208;SDS011;6669;42.678;23.332;2024-01-06T14:29:08;5.68;;;4.40;;
13208;SDS011;6669;42.678;23.332;2024-01-06T14:31:38;7.18;;;4.43;;
13208;SDS011;6669;42.678;23.332;2024-01-06T14:34:08;5.55;;;4.10;;
13208;SDS011;6669;42.678;23.332;2024-01-06T14:36:36;8.90;;;4.68;;
13208;SDS011;6669;42.678;23.332;2024-01-06T14:39:04;8.48;;;4.90;;
13208;SDS011;6669;42.678;23.332;2024-01-06T14:41:33;9.02;;;5.30;;
13208;SDS011;6669;42.678;23.332;2024-01-06T14:44:01;8.45;;;5.32;;
13208;SDS011;6669;42.678;23.332;2024-01-06T14:46:29;6.47;;;4.75;;